Time;durP1;ratioP1;P1;durP2;ratioP2;P2;SDS_P1;SDS_P2;PMS_P1;PMS_P2;Temp;Humidity;BMP_temperature;BMP_pressure;BME280_temperature;BME280_humidity;BME280_pressure;Samples;Min_cycle;Max_cycle;Signal;HPM_P1;HPM_P2
2021/12/04 00:00:28;;;;;;;1.53;1.43;;;-4.70;99.90;-5.70;96358.00;;;;5041918;28;20434;-75
2021/12/04 00:03:19;;;;;;;2.17;1.80;;;-4.70;99.90;-6.00;96355.00;;;;5031318;28;20440;-74
2021/12/04 00:06:11;;;;;;;2.33;2.10;;;-4.80;99.90;-5.80;96355.00;;;;5037798;28;20424;-75
2021/12/04 00:09:04;;;;;;;2.57;1.50;;;-4.80;99.90;-5.70;96340.00;;;;5026108;28;20947;-73
2021/12/04 00:11:56;;;;;;;1.00;1.00;;;-4.80;99.90;-5.80;96346.00;;;;5028471;28;20459;-75
2021/12/04 00:14:46;;;;;;;1.67;1.20;;;-4.70;99.90;-5.50;96346.00;;;;5034309;28;20490;-75
2021/12/04 00:17:35;;;;;;;3.00;1.63;;;-4.70;99.90;-5.40;96330.00;;;;5034753;28;21026;-75
2021/12/04 00:20:30;;;;;;;1.63;1.53;;;-4.70;99.90;-5.40;96330.00;;;;5032505;28;20420;-75
2021/12/04 00:23:19;;;;;;;2.30;1.90;;;-4.60;99.90;-5.70;96326.00;;;;5037312;28;20432;-75
2021/12/04 00:26:08;;;;;;;1.43;1.37;;;-4.70;99.90;-6.00;96345.00;;;;5032672;28;20427;-74
2021/12/04 00:28:57;;;;;;;1.83;1.73;;;-4.70;99.90;-6.00;96334.00;;;;5032398;28;20435;-74
2021/12/04 00:31:48;;;;;;;1.70;1.30;;;-4.90;99.90;-6.10;96345.00;;;;5036464;28;20849;-75
2021/12/04 00:34:41;;;;;;;1.43;1.33;;;-4.90;99.90;-5.80;96339.00;;;;5026813;28;20428;-74
2021/12/04 00:37:50;;;;;;;1.43;1.33;;;-5.00;99.90;-5.80;96335.00;;;;5028871;28;20824;-75
2021/12/04 00:49:59;;;;;;;1.30;1.30;;;-5.10;99.90;-6.40;96314.00;;;;5037724;28;20435;-74
2021/12/04 00:52:49;;;;;;;4.60;1.40;;;-5.20;99.90;-6.20;96313.00;;;;5034375;28;20526;-75
2021/12/04 00:55:38;;;;;;;2.90;1.30;;;-5.20;99.90;-5.90;96317.00;;;;5026078;28;20452;-74
2021/12/04 00:58:27;;;;;;;1.80;1.70;;;-5.20;99.90;-6.00;96313.00;;;;5042539;28;20439;-75
2021/12/04 01:01:16;;;;;;;2.47;1.70;;;-5.10;99.90;-6.30;96306.00;;;;5056114;28;20447;-75
2021/12/04 01:04:08;;;;;;;1.57;1.47;;;-5.20;99.90;-6.20;96293.00;;;;5046629;28;20439;-73
2021/12/04 01:06:57;;;;;;;1.87;1.70;;;-5.20;99.90;-6.20;96294.00;;;;5035550;28;20436;-75
2021/12/04 01:09:47;;;;;;;1.40;1.30;;;-5.20;99.90;-6.50;96288.00;;;;5040083;28;20427;-75
2021/12/04 01:12:39;;;;;;;2.70;1.40;;;-5.30;99.90;-6.50;96276.00;;;;5032769;28;20482;-75
2021/12/04 01:15:28;;;;;;;2.00;1.80;;;-5.30;99.90;-6.20;96268.00;;;;5024172;28;20974;-75
2021/12/04 01:18:18;;;;;;;0.87;0.87;;;-5.30;99.90;-6.10;96277.00;;;;5036650;28;20437;-75
2021/12/04 01:21:07;;;;;;;1.63;1.40;;;-5.20;99.90;-5.90;96269.00;;;;5034830;28;21211;-75
2021/12/04 01:23:56;;;;;;;1.63;1.53;;;-5.20;99.90;-5.90;96273.00;;;;5039912;28;20446;-75
2021/12/04 01:26:47;;;;;;;1.60;1.50;;;-5.10;99.90;-6.10;96269.00;;;;5026761;28;20444;-75
2021/12/04 01:29:36;;;;;;;0.90;0.90;;;-5.10;99.90;-6.60;96270.00;;;;5027747;28;20440;-74
2021/12/04 01:32:25;;;;;;;3.13;1.87;;;-5.20;99.90;-6.70;96268.00;;;;5036893;28;20448;-76
2021/12/04 01:35:14;;;;;;;1.77;1.67;;;-5.30;99.90;-6.70;96270.00;;;;5032741;28;21045;-75
2021/12/04 01:38:03;;;;;;;2.43;1.40;;;-5.40;99.90;-6.70;96256.00;;;;5029849;28;20429;-75
2021/12/04 01:40:52;;;;;;;2.00;1.90;;;-5.50;99.90;-6.70;96269.00;;;;5038447;28;20451;-75
2021/12/04 01:43:42;;;;;;;2.30;1.80;;;-5.50;99.90;-6.60;96259.00;;;;5035343;28;20423;-74
2021/12/04 01:46:33;;;;;;;1.20;1.20;;;-5.50;99.90;-6.40;96246.00;;;;5036323;28;20427;-75
2021/12/04 01:49:23;;;;;;;1.43;1.33;;;-5.50;99.90;-6.20;96243.00;;;;5038014;28;20434;-74
2021/12/04 01:52:11;;;;;;;1.47;1.37;;;-5.50;99.90;-6.00;96238.00;;;;5036234;28;20821;-75
2021/12/04 01:55:00;;;;;;;1.27;1.23;;;-5.40;99.90;-5.90;96235.00;;;;5036107;28;20452;-74
2021/12/04 01:57:49;;;;;;;1.93;1.73;;;-5.30;99.90;-5.90;96228.00;;;;5025950;28;20476;-74
2021/12/04 02:00:42;;;;;;;2.10;1.90;;;-5.20;99.90;-5.70;96236.00;;;;5041606;28;20530;-75
2021/12/04 02:03:31;;;;;;;1.60;1.43;;;-5.10;99.90;-5.80;96219.00;;;;5034767;28;20436;-73
2021/12/04 02:06:20;;;;;;;1.67;1.57;;;-5.00;99.90;-5.90;96209.00;;;;5039779;28;20430;-75
2021/12/04 02:09:10;;;;;;;2.60;2.07;;;-5.00;99.90;-6.00;96204.00;;;;5043534;28;20423;-75
2021/12/04 02:11:59;;;;;;;1.23;0.87;;;-5.00;99.90;-6.70;96194.00;;;;5038205;28;20444;-75
2021/12/04 02:14:50;;;;;;;0.93;0.93;;;-5.20;99.90;-6.50;96181.00;;;;5029826;28;20430;-75
2021/12/04 02:17:41;;;;;;;0.90;0.90;;;-5.30;99.90;-6.50;96177.00;;;;5028933;28;20474;-73
2021/12/04 02:20:33;;;;;;;0.80;0.80;;;-5.30;99.90;-6.70;96169.00;;;;5025191;28;20431;-74
2021/12/04 02:23:22;;;;;;;2.03;1.87;;;-5.40;99.90;-6.50;96166.00;;;;5038289;28;20436;-74
2021/12/04 02:26:12;;;;;;;3.03;1.47;;;-5.40;99.90;-6.10;96170.00;;;;5029903;28;20435;-75
2021/12/04 02:29:01;;;;;;;1.83;1.70;;;-5.30;99.90;-6.10;96167.00;;;;5028688;28;20428;-75
2021/12/04 02:31:51;;;;;;;1.57;1.47;;;-5.30;99.90;-6.10;96153.00;;;;5032485;28;20451;-74
2021/12/04 02:34:40;;;;;;;3.73;1.30;;;-5.20;99.90;-5.90;96164.00;;;;5033756;28;20500;-74
2021/12/04 02:37:32;;;;;;;1.50;1.40;;;-5.20;99.90;-6.20;96152.00;;;;5040869;28;20503;-76
2021/12/04 02:40:24;;;;;;;1.50;1.40;;;-5.10;99.90;-6.50;96143.00;;;;5028509;28;20531;-74
2021/12/04 02:43:13;;;;;;;2.17;1.83;;;-5.20;99.90;-6.30;96147.00;;;;5039801;28;20439;-75
2021/12/04 02:46:02;;;;;;;1.50;1.40;;;-5.20;99.90;-6.50;96145.00;;;;5037576;28;20814;-74
2021/12/04 02:48:51;;;;;;;1.93;1.50;;;-5.30;99.90;-6.30;96155.00;;;;5035985;28;20431;-76
2021/12/04 02:51:40;;;;;;;1.97;1.77;;;-5.30;99.90;-6.40;96132.00;;;;5038709;28;20454;-76
2021/12/04 02:54:33;;;;;;;0.80;0.80;;;-5.30;99.90;-6.40;96120.00;;;;5031869;28;20424;-74
2021/12/04 02:57:22;;;;;;;3.40;1.87;;;-5.30;99.90;-6.00;96130.00;;;;5037168;28;20474;-75
2021/12/04 03:00:16;;;;;;;2.17;1.50;;;-5.30;99.90;-5.80;96116.00;;;;5039554;28;20446;-75
2021/12/04 03:03:05;;;;;;;2.00;1.80;;;-5.20;99.90;-5.90;96109.00;;;;5037117;28;20992;-75
2021/12/04 03:05:54;;;;;;;1.63;1.53;;;-5.10;99.90;-5.80;96103.00;;;;5031823;28;20432;-75
2021/12/04 03:08:44;;;;;;;1.73;1.63;;;-5.10;99.90;-5.80;96109.00;;;;5036883;28;20428;-75
2021/12/04 03:11:34;;;;;;;1.50;1.40;;;-4.90;99.90;-5.90;96104.00;;;;5026749;28;20456;-73
2021/12/04 03:14:23;;;;;;;1.50;1.40;;;-4.90;99.90;-6.20;96102.00;;;;5035332;28;20442;-74
2021/12/04 03:17:14;;;;;;;1.37;1.27;;;-4.90;99.90;-6.20;96093.00;;;;5035463;28;20467;-75
2021/12/04 03:20:26;;;;;;;3.43;1.60;;;-5.00;99.90;-6.10;96090.00;;;;5027792;28;20423;-74
2021/12/04 03:23:26;;;;;;;2.33;1.67;;;-5.10;99.90;-5.80;96101.00;;;;5038271;28;20432;-74
2021/12/04 03:26:15;;;;;;;1.83;1.60;;;-5.00;99.90;-6.00;96094.00;;;;5040728;28;20439;-75
2021/12/04 03:29:09;;;;;;;1.43;1.33;;;-5.00;99.90;-6.00;96089.00;;;;5040208;28;20431;-74
2021/12/04 03:32:17;;;;;;;1.53;1.43;;;-5.00;99.90;-5.90;96081.00;;;;5040148;28;20824;-75
2021/12/04 03:35:23;;;;;;;2.80;1.77;;;-5.00;99.90;-5.70;96075.00;;;;5036605;28;20432;-75
2021/12/04 03:41:19;;;;;;;2.20;1.73;;;-4.90;99.90;-5.40;96059.00;;;;5027201;28;20475;-76
2021/12/04 03:44:09;;;;;;;1.83;1.70;;;-4.80;99.90;-5.30;96062.00;;;;5044149;28;20875;-75
2021/12/04 03:46:58;;;;;;;2.13;1.63;;;-4.70;99.90;-5.30;96059.00;;;;5043544;28;20743;-75
2021/12/04 03:49:47;;;;;;;1.43;1.30;;;-4.60;99.90;-5.50;96064.00;;;;5033892;28;20436;-75
2021/12/04 03:52:37;;;;;;;2.40;1.47;;;-4.60;99.90;-5.50;96066.00;;;;5037436;28;20443;-75
2021/12/04 03:55:26;;;;;;;1.00;1.00;;;-4.60;99.90;-5.80;96060.00;;;;5037709;28;20436;-76
2021/12/04 03:58:15;;;;;;;6.47;1.47;;;-4.60;99.90;-5.90;96063.00;;;;5031375;28;20467;-76
2021/12/04 04:01:05;;;;;;;1.30;1.30;;;-4.70;99.90;-5.90;96058.00;;;;5042915;28;20451;-76
2021/12/04 04:03:54;;;;;;;1.90;1.40;;;-4.80;99.90;-6.00;96070.00;;;;5046770;28;20490;-76
2021/12/04 04:06:43;;;;;;;2.07;1.50;;;-4.80;99.90;-5.70;96053.00;;;;5052437;28;20432;-75
2021/12/04 04:09:32;;;;;;;1.13;1.10;;;-4.80;99.90;-5.70;96048.00;;;;5037488;28;20438;-74
2021/12/04 04:12:21;;;;;;;3.30;2.47;;;-4.80;99.90;-5.70;96031.00;;;;5040528;28;20465;-74
2021/12/04 04:15:10;;;;;;;1.67;1.57;;;-4.80;99.90;-5.50;96029.00;;;;5038582;28;20428;-75
2021/12/04 04:18:00;;;;;;;1.83;1.73;;;-4.80;99.90;-5.40;96034.00;;;;5030814;28;20551;-74
2021/12/04 04:20:49;;;;;;;2.20;1.77;;;-4.70;99.90;-5.20;96028.00;;;;5039359;28;20454;-75
2021/12/04 04:23:38;;;;;;;1.77;1.60;;;-4.60;99.90;-5.10;96030.00;;;;5024956;28;20437;-76
2021/12/04 04:26:27;;;;;;;2.40;2.07;;;-4.50;99.90;-5.00;96027.00;;;;5037578;28;20435;-73
2021/12/04 04:29:16;;;;;;;7.27;4.97;;;-4.40;99.90;-5.10;96020.00;;;;5041061;28;20481;-74
2021/12/04 04:32:06;;;;;;;3.07;2.37;;;-4.30;99.90;-5.60;96007.00;;;;5042259;28;20446;-74
2021/12/04 04:35:06;;;;;;;11.97;1.90;;;-4.40;99.90;-5.60;96000.00;;;;5033455;28;20946;-75
2021/12/04 04:38:02;;;;;;;6.87;4.07;;;-4.50;99.90;-5.50;95995.00;;;;5034174;28;20539;-76
2021/12/04 04:59:43;;;;;;;1.40;1.30;;;-4.40;99.90;-5.30;95994.00;;;;5035263;28;20957;-75
2021/12/04 05:11:59;;;;;;;3.30;2.53;;;-4.30;99.90;-5.10;95997.00;;;;5025436;28;20459;-74
2021/12/04 05:14:54;;;;;;;2.87;2.57;;;-4.30;99.90;-5.20;95995.00;;;;5035602;28;20432;-74
2021/12/04 05:17:54;;;;;;;3.07;2.43;;;-4.20;99.90;-5.00;95992.00;;;;5027170;28;20748;-74
2021/12/04 05:20:50;;;;;;;2.07;1.63;;;-4.60;99.90;-5.00;96003.00;;;;5031855;28;20444;-75
2021/12/04 05:23:43;;;;;;;2.03;1.83;;;-4.20;99.90;-5.00;95997.00;;;;5031286;28;20442;-75
2021/12/04 05:26:32;;;;;;;4.37;2.07;;;-4.20;99.90;-5.00;96007.00;;;;5026650;28;20458;-74
2021/12/04 05:29:24;;;;;;;1.43;1.33;;;-4.20;99.90;-5.00;95992.00;;;;5035473;28;20796;-76
2021/12/04 05:32:16;;;;;;;1.57;1.40;;;-4.20;99.90;-5.00;95988.00;;;;5034781;28;20439;-74
2021/12/04 05:35:06;;;;;;;4.00;2.27;;;-4.20;99.90;-4.90;95992.00;;;;5035417;28;21097;-75
2021/12/04 05:37:59;;;;;;;1.50;1.40;;;-4.20;99.90;-5.00;95993.00;;;;5030073;28;20503;-75
2021/12/04 05:40:49;;;;;;;1.77;1.40;;;-4.20;99.90;-5.00;95993.00;;;;5032484;28;20449;-76
2021/12/04 05:43:38;;;;;;;1.27;1.17;;;-4.20;99.90;-5.40;95974.00;;;;5034747;28;20447;-75
2021/12/04 05:46:28;;;;;;;1.47;1.37;;;-4.20;99.90;-5.10;95987.00;;;;5036317;28;20415;-76
2021/12/04 05:49:20;;;;;;;1.53;1.20;;;-4.20;99.90;-4.80;95982.00;;;;5038470;28;20558;-76
2021/12/04 05:52:17;;;;;;;1.83;1.73;;;-4.20;99.90;-4.80;95976.00;;;;5035246;28;20467;-76
2021/12/04 05:55:12;;;;;;;2.43;1.53;;;-4.10;99.90;-5.00;95963.00;;;;5039082;28;20446;-75
2021/12/04 05:58:01;;;;;;;1.47;1.37;;;-4.10;99.90;-5.10;95962.00;;;;5031513;28;20460;-75
2021/12/04 06:00:50;;;;;;;1.70;1.60;;;-4.10;99.90;-4.90;95958.00;;;;5029235;28;20459;-75
2021/12/04 06:03:39;;;;;;;1.60;1.50;;;-4.10;99.90;-4.80;95952.00;;;;5037399;28;20953;-76
2021/12/04 06:06:28;;;;;;;1.43;1.23;;;-4.10;99.90;-4.80;95946.00;;;;5031575;28;20428;-74
2021/12/04 06:09:18;;;;;;;2.37;1.83;;;-4.10;99.90;-5.30;95928.00;;;;5038136;28;20428;-74
2021/12/04 06:12:09;;;;;;;1.13;1.07;;;-3.90;99.90;-5.30;95933.00;;;;5039210;28;20447;-76
2021/12/04 06:14:58;;;;;;;3.10;1.43;;;-4.20;99.90;-5.30;95927.00;;;;5041415;28;20436;-75
2021/12/04 06:17:49;;;;;;;2.10;1.27;;;-4.20;99.90;-5.20;95935.00;;;;5039572;28;21025;-76
2021/12/04 06:23:45;;;;;;;1.80;1.70;;;-4.20;99.90;-5.10;95935.00;;;;5041016;28;20420;-75
2021/12/04 06:26:37;;;;;;;2.30;2.10;;;-4.30;99.90;-4.90;95921.00;;;;5033010;28;20416;-75
2021/12/04 06:29:27;;;;;;;3.10;1.70;;;-4.10;99.90;-4.80;95917.00;;;;5038767;28;20419;-75
2021/12/04 06:32:16;;;;;;;1.70;1.60;;;-4.20;99.90;-4.90;95904.00;;;;5034282;28;20448;-75
2021/12/04 06:35:07;;;;;;;3.77;1.53;;;-4.20;99.90;-5.10;95903.00;;;;5039895;28;20431;-75
2021/12/04 06:37:56;;;;;;;2.87;2.33;;;-4.20;99.90;-4.90;95897.00;;;;5037032;28;20472;-76
2021/12/04 06:40:46;;;;;;;1.97;1.33;;;-4.20;99.90;-5.10;95890.00;;;;5027357;28;20457;-74
2021/12/04 06:43:37;;;;;;;1.93;1.70;;;-4.20;99.90;-5.30;95883.00;;;;5029766;28;20436;-74
2021/12/04 06:46:29;;;;;;;1.80;1.70;;;-4.20;99.90;-5.10;95875.00;;;;5032833;28;20440;-75
2021/12/04 06:49:20;;;;;;;1.90;1.70;;;-4.20;99.90;-5.10;95880.00;;;;5027357;28;20427;-75
2021/12/04 06:52:14;;;;;;;2.27;1.87;;;-4.30;99.90;-5.20;95874.00;;;;5023627;28;20452;-73
2021/12/04 06:55:04;;;;;;;3.37;3.00;;;-4.30;99.90;-5.10;95887.00;;;;5024320;28;20971;-76
2021/12/04 06:57:53;;;;;;;2.20;2.00;;;-4.30;99.90;-5.20;95884.00;;;;5024414;28;20424;-77
2021/12/04 07:00:42;;;;;;;1.93;1.80;;;-4.20;99.90;-4.90;95881.00;;;;5038218;28;20423;-76
2021/12/04 07:03:35;;;;;;;4.57;3.13;;;-4.30;99.90;-4.80;95878.00;;;;5025172;28;20459;-76
2021/12/04 07:06:24;;;;;;;2.77;2.57;;;-4.20;99.90;-4.90;95877.00;;;;5038643;28;21027;-76
2021/12/04 07:09:13;;;;;;;2.10;2.00;;;-4.10;99.90;-4.90;95857.00;;;;5040387;28;20427;-76
2021/12/04 07:12:02;;;;;;;2.10;1.87;;;-4.10;99.90;-4.90;95864.00;;;;5044156;28;20765;-76
2021/12/04 07:14:51;;;;;;;1.77;1.67;;;-4.10;99.90;-4.80;95868.00;;;;5039498;28;20799;-77
2021/12/04 07:17:40;;;;;;;2.00;1.90;;;-4.10;99.90;-5.00;95861.00;;;;5033000;28;21211;-77
2021/12/04 07:20:32;;;;;;;2.30;2.10;;;-4.00;99.90;-5.10;95852.00;;;;5026717;28;20435;-77
2021/12/04 07:23:21;;;;;;;1.80;1.67;;;-4.10;99.90;-5.00;95843.00;;;;5029252;28;20432;-76
2021/12/04 07:26:10;;;;;;;2.03;1.93;;;-4.00;99.90;-4.80;95845.00;;;;5040747;28;20435;-76
2021/12/04 07:28:59;;;;;;;2.73;2.20;;;-4.00;99.90;-4.60;95850.00;;;;5040225;28;20436;-76
2021/12/04 07:31:48;;;;;;;2.73;2.30;;;-4.00;99.90;-4.50;95855.00;;;;5037282;28;20452;-76
2021/12/04 07:34:37;;;;;;;2.90;2.20;;;-3.90;99.90;-4.20;95854.00;;;;5033814;28;20438;-76
2021/12/04 07:37:28;;;;;;;2.47;2.30;;;-3.80;99.90;-4.10;95835.00;;;;5043494;28;20801;-74
2021/12/04 07:40:18;;;;;;;3.17;2.80;;;-3.70;99.90;-4.30;95830.00;;;;5031015;28;22364;-74
2021/12/04 07:43:07;;;;;;;5.77;2.57;;;-3.60;99.90;-4.50;95824.00;;;;5037887;28;20813;-74
2021/12/04 07:45:56;;;;;;;1.60;1.50;;;-3.60;99.90;-4.50;95826.00;;;;5033782;28;20818;-74
2021/12/04 07:48:45;;;;;;;2.00;1.50;;;-3.60;99.90;-4.60;95823.00;;;;5032351;28;20490;-76
2021/12/04 07:51:34;;;;;;;0.87;0.80;;;-3.70;99.90;-4.60;95817.00;;;;5042122;28;20958;-77
2021/12/04 07:54:24;;;;;;;1.40;1.30;;;-3.70;99.90;-4.50;95820.00;;;;5039940;28;20431;-77
2021/12/04 07:57:13;;;;;;;2.07;1.83;;;-3.70;99.90;-4.40;95823.00;;;;5032154;28;20462;-74
2021/12/04 08:00:06;;;;;;;2.10;1.40;;;-3.60;99.90;-4.00;95822.00;;;;5029979;28;20471;-74
2021/12/04 08:02:55;;;;;;;1.70;1.60;;;-3.60;99.90;-3.80;95835.00;;;;5042363;28;20434;-75
2021/12/04 08:05:46;;;;;;;6.53;2.40;;;-3.40;99.90;-3.70;95820.00;;;;5042552;28;20423;-74
2021/12/04 08:08:35;;;;;;;2.30;1.80;;;-3.30;99.90;-3.50;95818.00;;;;5027111;28;20437;-77
2021/12/04 08:11:29;;;;;;;3.17;2.37;;;-3.20;99.90;-3.30;95820.00;;;;5044842;28;20451;-76
2021/12/04 08:14:18;;;;;;;3.70;2.63;;;-3.00;99.90;-3.20;95809.00;;;;5029995;28;20515;-76
2021/12/04 08:17:09;;;;;;;3.70;2.67;;;-2.90;99.90;-2.90;95810.00;;;;5044531;28;20950;-76
2021/12/04 08:19:58;;;;;;;2.47;2.23;;;-2.70;99.90;-2.70;95817.00;;;;5031900;28;20455;-76
2021/12/04 08:22:49;;;;;;;5.77;3.00;;;-2.60;99.90;-2.50;95822.00;;;;5040567;28;20473;-75
2021/12/04 08:25:39;;;;;;;3.70;2.53;;;-2.40;99.90;-2.30;95816.00;;;;5039794;28;20501;-75
2021/12/04 08:28:29;;;;;;;4.70;3.17;;;-2.20;99.90;-2.20;95809.00;;;;5047820;28;20431;-74
2021/12/04 08:31:21;;;;;;;2.40;2.00;;;-2.10;99.90;-2.10;95803.00;;;;5040432;28;20479;-72
2021/12/04 08:34:10;;;;;;;6.43;3.63;;;-2.00;99.90;-2.00;95797.00;;;;5043492;28;20858;-74
2021/12/04 08:37:00;;;;;;;5.43;2.53;;;-1.80;99.90;-1.90;95803.00;;;;5031872;28;20439;-75
2021/12/04 08:39:49;;;;;;;3.40;2.97;;;-1.70;99.90;-1.70;95799.00;;;;5034593;28;20464;-74
2021/12/04 08:42:39;;;;;;;3.63;3.23;;;-1.60;99.90;-1.60;95804.00;;;;5039777;28;20975;-75
2021/12/04 08:45:33;;;;;;;4.33;3.33;;;-1.20;99.90;-1.90;95808.00;;;;5036053;28;20458;-74
2021/12/04 08:48:22;;;;;;;8.97;3.67;;;-1.40;99.90;-1.90;95811.00;;;;5032647;28;20862;-74
2021/12/04 08:51:11;;;;;;;5.37;3.37;;;-1.40;99.90;-1.50;95806.00;;;;5026225;28;20452;-74
2021/12/04 08:54:02;;;;;;;3.63;2.60;;;-1.30;99.90;-1.20;95806.00;;;;5039444;28;20473;-72
2021/12/04 08:56:51;;;;;;;6.90;3.67;;;-1.10;99.90;-1.50;95803.00;;;;5028295;28;20439;-74
2021/12/04 08:59:41;;;;;;;4.13;3.00;;;-1.00;99.90;-1.60;95791.00;;;;5038978;28;20463;-74
2021/12/04 09:02:32;;;;;;;7.27;2.80;;;-0.90;99.90;-1.70;95796.00;;;;5040956;28;20981;-74
2021/12/04 09:05:24;;;;;;;6.87;3.10;;;-0.90;99.90;-1.40;95802.00;;;;5036271;28;20853;-74
2021/12/04 09:08:13;;;;;;;4.10;2.73;;;-0.90;99.90;-1.20;95798.00;;;;5024652;28;20451;-74
2021/12/04 09:11:10;;;;;;;7.83;3.10;;;-0.90;99.90;-1.00;95789.00;;;;5030230;28;20461;-76
2021/12/04 09:14:02;;;;;;;3.50;2.80;;;-0.80;99.90;-0.70;95817.00;;;;5027732;28;20439;-75
2021/12/04 09:16:53;;;;;;;9.20;3.07;;;-0.70;99.90;-0.50;95812.00;;;;5033530;28;20953;-75
2021/12/04 09:19:43;;;;;;;7.53;4.17;;;-0.50;99.90;-0.30;95816.00;;;;5038359;28;20488;-73
2021/12/04 09:22:35;;;;;;;7.20;3.73;;;-1.40;99.90;-0.10;95821.00;;;;5042640;28;20455;-74
2021/12/04 09:25:26;;;;;;;4.67;3.40;;;-0.20;99.90;0.00;95808.00;;;;5034195;28;20434;-74
2021/12/04 09:28:22;;;;;;;8.37;2.83;;;0.00;99.90;0.20;95794.00;;;;5034444;28;20976;-75
2021/12/04 09:31:25;;;;;;;4.07;3.10;;;0.00;99.90;0.00;95795.00;;;;5037328;28;20451;-75
2021/12/04 09:59:36;;;;;;;6.33;3.27;;;0.90;99.90;0.90;95760.00;;;;5038427;28;20431;-74
2021/12/04 10:02:40;;;;;;;7.40;3.63;;;0.90;99.90;0.80;95747.00;;;;5040224;28;21088;-74
2021/12/04 10:06:00;;;;;;;14.00;4.23;;;1.00;99.90;0.50;95741.00;;;;5034841;28;20428;-73
2021/12/04 10:12:34;;;;;;;4.17;3.07;;;1.00;99.90;1.00;95739.00;;;;5015939;28;20455;-73
2021/12/04 10:18:53;;;;;;;4.47;3.20;;;1.20;99.90;1.40;95732.00;;;;5045123;28;20431;-73
2021/12/04 10:21:53;;;;;;;3.47;2.63;;;1.40;99.90;1.60;95715.00;;;;5038326;28;20467;-74
2021/12/04 10:25:00;;;;;;;5.93;3.33;;;1.80;99.90;2.30;95723.00;;;;5039311;28;20443;-74
2021/12/04 10:34:03;;;;;;;5.53;3.10;;;3.40;99.90;3.20;95706.00;;;;5038016;28;20439;-74
2021/12/04 10:36:52;;;;;;;6.20;3.60;;;3.70;99.90;2.90;95688.00;;;;5035594;28;20204;-73
2021/12/04 10:39:43;;;;;;;7.17;4.17;;;3.80;99.70;3.30;95680.00;;;;5044259;28;20208;-74
2021/12/04 10:42:44;;;;;;;6.93;3.20;;;3.70;99.90;3.50;95670.00;;;;5039080;28;20228;-78
2021/12/04 10:45:37;;;;;;;6.47;3.60;;;3.80;99.90;4.20;95674.00;;;;5046020;28;20207;-77
2021/12/04 10:48:30;;;;;;;5.27;2.97;;;4.10;99.90;3.80;95677.00;;;;5044130;28;20233;-77
2021/12/04 10:51:28;;;;;;;5.33;3.13;;;4.40;97.60;3.60;95654.00;;;;5048366;28;20703;-76
2021/12/04 10:54:26;;;;;;;5.53;3.03;;;4.50;95.40;4.30;95658.00;;;;5033587;28;20660;-77
2021/12/04 11:00:36;;;;;;;4.10;3.13;;;4.70;95.00;4.60;95630.00;;;;5045218;28;20698;-75
2021/12/04 11:03:37;;;;;;;7.23;3.43;;;4.90;93.00;5.30;95635.00;;;;5039215;28;20254;-76
2021/12/04 11:19:12;;;;;;;12.43;5.10;;;5.10;91.20;5.80;95619.00;;;;5044668;28;20200;-77
2021/12/04 11:22:19;;;;;;;3.07;2.77;;;5.40;92.30;5.50;95626.00;;;;5047003;28;20726;-77
2021/12/04 11:25:38;;;;;;;4.53;3.07;;;5.60;91.60;5.50;95610.00;;;;5047373;28;20193;-75
2021/12/04 11:28:44;;;;;;;6.60;3.30;;;5.80;90.40;5.60;95601.00;;;;5044634;28;20215;-76
2021/12/04 11:38:23;;;;;;;2.70;2.43;;;5.80;88.00;5.20;95575.00;;;;4981624;28;20206;-75
2021/12/04 11:41:20;;;;;;;3.07;2.60;;;5.60;88.60;4.80;95588.00;;;;5045843;28;20240;-75
2021/12/04 11:44:14;;;;;;;5.80;2.93;;;5.40;87.00;4.80;95588.00;;;;5040441;28;20207;-75
2021/12/04 11:47:03;;;;;;;4.40;2.70;;;5.10;87.60;4.70;95590.00;;;;5042697;28;21410;-76
2021/12/04 11:49:52;;;;;;;4.07;2.73;;;5.00;88.70;4.40;95569.00;;;;5042876;28;20193;-77
2021/12/04 11:52:47;;;;;;;6.40;2.50;;;4.80;85.90;4.40;95563.00;;;;5041828;28;20217;-74
2021/12/04 11:55:40;;;;;;;2.83;2.63;;;4.60;86.50;3.20;95559.00;;;;5038312;28;20205;-74
2021/12/04 11:58:32;;;;;;;3.97;2.60;;;4.30;83.40;2.80;95541.00;;;;5040736;28;20220;-73
2021/12/04 12:01:30;;;;;;;3.53;2.73;;;4.00;83.20;3.30;95528.00;;;;5043301;28;20232;-73
2021/12/04 12:04:35;;;;;;;3.70;2.77;;;3.80;84.20;4.70;95499.00;;;;5031990;28;20590;-75
2021/12/04 12:07:29;;;;;;;3.80;2.43;;;4.20;85.60;6.60;95512.00;;;;5033004;28;20205;-78
2021/12/04 12:10:18;;;;;;;3.33;2.80;;;5.20;85.60;7.90;95515.00;;;;5040541;28;20208;-77
2021/12/04 12:13:07;;;;;;;3.57;2.53;;;6.50;84.00;8.20;95516.00;;;;5039431;28;20220;-76
2021/12/04 12:16:08;;;;;;;3.43;2.27;;;7.70;78.40;8.60;95510.00;;;;5039565;28;20220;-77
2021/12/04 12:19:01;;;;;;;3.67;2.07;;;8.70;69.90;9.00;95509.00;;;;5037828;28;20278;-75
2021/12/04 12:21:56;;;;;;;2.77;2.07;;;9.40;64.40;9.40;95520.00;;;;5048909;28;20236;-79
2021/12/04 12:27:57;;;;;;;6.30;1.90;;;10.30;61.10;10.80;95512.00;;;;5042214;28;20205;-78
2021/12/04 12:34:04;;;;;;;3.90;2.10;;;11.10;57.20;8.40;95481.00;;;;5034015;28;20583;-77
2021/12/04 12:36:52;;;;;;;4.53;2.07;;;10.80;56.10;8.60;95487.00;;;;5044419;28;20189;-77
2021/12/04 12:39:57;;;;;;;2.83;1.73;;;10.40;56.40;10.10;95482.00;;;;5039589;28;20622;-77
2021/12/04 12:42:46;;;;;;;2.47;2.23;;;10.60;57.30;10.40;95500.00;;;;5045842;28;20242;-74
2021/12/04 12:45:36;;;;;;;6.10;3.10;;;10.90;56.30;9.60;95463.00;;;;5049249;28;20212;-76
2021/12/04 12:48:25;;;;;;;4.50;2.43;;;10.80;54.60;10.00;95477.00;;;;5044781;28;20209;-77
2021/12/04 12:51:22;;;;;;;3.63;2.30;;;10.60;55.60;7.50;95465.00;;;;5044770;28;20216;-77
2021/12/04 12:54:11;;;;;;;4.13;2.47;;;10.00;54.10;8.70;95451.00;;;;5035325;28;20189;-75
2021/12/04 12:57:08;;;;;;;5.50;2.80;;;9.60;56.10;9.90;95447.00;;;;5037336;28;21090;-75
2021/12/04 13:12:48;;;;;;;6.47;2.37;;;11.20;54.80;10.30;95470.00;;;;5042509;28;20235;-76
2021/12/04 13:15:40;;;;;;;3.00;2.17;;;11.10;54.10;10.00;95469.00;;;;5039734;28;20212;-77
2021/12/04 13:18:31;;;;;;;6.47;2.73;;;10.90;54.30;10.20;95490.00;;;;5036683;28;20201;-76
2021/12/04 13:21:20;;;;;;;2.53;2.33;;;10.90;54.60;9.40;95494.00;;;;5042645;28;20290;-77
2021/12/04 13:24:13;;;;;;;3.77;2.67;;;10.70;54.30;8.80;95497.00;;;;5030436;28;20193;-75
2021/12/04 13:30:05;;;;;;;15.17;8.10;;;9.80;54.80;6.10;95495.00;;;;5041961;28;20706;-76
2021/12/04 13:32:54;;;;;;;8.20;4.00;;;8.90;55.90;5.20;95475.00;;;;5036639;28;20220;-77
2021/12/04 13:35:45;;;;;;;5.97;4.10;;;7.80;58.40;4.60;95465.00;;;;5029787;28;20486;-76
2021/12/04 13:38:35;;;;;;;5.60;4.33;;;6.80;61.40;4.50;95463.00;;;;5035686;28;20224;-76
2021/12/04 13:41:26;;;;;;;9.60;5.47;;;6.10;63.10;4.30;95458.00;;;;5038540;28;20275;-75
2021/12/04 13:44:20;;;;;;;5.30;3.77;;;5.50;64.70;4.30;95453.00;;;;5039785;28;20200;-76
2021/12/04 13:47:13;;;;;;;3.97;3.07;;;5.20;65.80;4.00;95463.00;;;;5043841;28;20204;-76
2021/12/04 13:50:06;;;;;;;3.53;2.77;;;4.90;67.60;3.70;95463.00;;;;5028997;28;20197;-76
2021/12/04 13:52:55;;;;;;;12.80;7.60;;;4.60;68.20;3.40;95463.00;;;;5039724;28;20215;-73
2021/12/04 13:55:48;;;;;;;27.87;12.43;;;4.30;69.50;3.40;95463.00;;;;5040410;28;20204;-75
2021/12/04 13:58:46;;;;;;;20.23;10.70;;;4.00;70.60;3.20;95440.00;;;;5040785;28;20212;-76
2021/12/04 14:01:42;;;;;;;13.57;7.60;;;3.80;72.10;2.80;95436.00;;;;5035329;28;20239;-74
2021/12/04 14:04:31;;;;;;;24.50;12.10;;;3.70;74.60;3.00;95437.00;;;;5029691;28;20676;-76
2021/12/04 14:07:20;;;;;;;40.63;13.70;;;3.50;75.80;3.00;95437.00;;;;5038859;28;20203;-74
2021/12/04 14:10:13;;;;;;;20.87;10.00;;;3.40;77.50;3.10;95430.00;;;;5035341;28;20204;-75
2021/12/04 14:13:05;;;;;;;16.70;9.37;;;3.30;79.40;2.90;95428.00;;;;5041968;28;20208;-74
2021/12/04 14:15:56;;;;;;;8.03;5.00;;;3.20;80.60;2.30;95413.00;;;;5034870;28;20216;-76
2021/12/04 14:18:46;;;;;;;9.67;6.40;;;3.10;81.70;2.60;95419.00;;;;5044372;28;20208;-76
2021/12/04 14:21:35;;;;;;;14.90;8.07;;;3.00;82.30;2.10;95416.00;;;;5040245;28;20227;-75
2021/12/04 14:24:29;;;;;;;14.17;7.77;;;2.80;83.30;2.00;95410.00;;;;5035631;28;20584;-76
2021/12/04 14:27:24;;;;;;;11.17;6.43;;;2.70;85.20;2.00;95410.00;;;;5029526;28;20641;-79
2021/12/04 14:30:19;;;;;;;5.73;4.17;;;2.60;85.80;1.40;95399.00;;;;5028161;28;20412;-78
2021/12/04 14:33:09;;;;;;;9.87;3.80;;;2.30;90.00;1.00;95410.00;;;;5032306;28;20749;-79
2021/12/04 14:35:58;;;;;;;4.90;3.37;;;2.00;91.50;0.70;95405.00;;;;5028378;28;20946;-78
2021/12/04 14:38:48;;;;;;;6.60;3.27;;;1.60;92.40;0.60;95405.00;;;;5027961;28;21907;-79
2021/12/04 14:41:37;;;;;;;6.60;3.27;;;1.50;94.60;0.30;95396.00;;;;5035219;28;20451;-79
2021/12/04 14:44:41;;;;;;;3.83;3.10;;;1.30;97.00;0.20;95399.00;;;;5022676;28;20598;-77
2021/12/04 14:47:44;;;;;;;3.63;3.30;;;1.10;99.20;0.30;95407.00;;;;5035794;28;20499;-77
2021/12/04 14:50:38;;;;;;;3.43;3.07;;;1.00;99.90;0.20;95411.00;;;;5042698;28;20865;-76
2021/12/04 14:53:27;;;;;;;7.87;4.07;;;0.90;99.90;0.40;95395.00;;;;5046948;28;20577;-79